Time;durP1;ratioP1;P1;durP2;ratioP2;P2;SDS_P1;SDS_P2;PMS_P1;PMS_P2;Temp;Humidity;BMP_temperature;BMP_pressure;BME280_temperature;BME280_humidity;BME280_pressure;Samples;Min_cycle;Max_cycle;Signal;HPM_P1;HPM_P2
2023/05/05 00:01:43;;;;;;;;;;;;;;;14.17;100.00;-18409.28;5021767;28;19913;-79
2023/05/05 00:04:09;;;;;;;;;;;;;;;14.23;100.00;-18410.91;5038029;28;20551;-80
2023/05/05 00:06:34;;;;;;;;;;;;;;;14.35;100.00;-18413.94;5019662;28;19913;-79
2023/05/05 00:08:59;;;;;;;;;;;;;;;14.37;100.00;-18414.63;5018381;28;19914;-80
2023/05/05 00:11:25;;;;;;;;;;;;;;;14.54;100.00;-18419.13;5016894;28;20323;-79
2023/05/05 00:13:50;;;;;;;;;;;;;;;14.44;100.00;-18416.38;5016239;28;20012;-79
2023/05/05 00:16:16;;;;;;;;;;;;;;;14.28;100.00;-18412.00;5014916;28;20432;-80
2023/05/05 00:18:41;;;;;;;;;;;;;;;14.27;100.00;-18411.88;5015208;28;19914;-80
2023/05/05 00:21:07;;;;;;;;;;;;;;;14.41;100.00;-18415.56;5016426;28;20431;-79
2023/05/05 00:23:32;;;;;;;;;;;;;;;14.50;100.00;-18418.03;5009323;28;19928;-80
2023/05/05 00:25:57;;;;;;;;;;;;;;;14.45;100.00;-18416.81;5016577;28;19945;-79
2023/05/05 00:28:22;;;;;;;;;;;;;;;14.37;100.00;-18414.63;5013092;28;19921;-79
2023/05/05 00:30:48;;;;;;;;;;;;;;;14.44;100.00;-18416.38;5009123;28;20408;-79
2023/05/05 00:33:13;;;;;;;;;;;;;;;14.56;100.00;-18419.69;5017417;28;20320;-80
2023/05/05 00:35:38;;;;;;;;;;;;;;;14.49;100.00;-18417.63;5014302;28;19921;-80
2023/05/05 00:38:03;;;;;;;;;;;;;;;14.61;100.00;-18420.91;5018283;28;19925;-79
2023/05/05 00:40:29;;;;;;;;;;;;;;;14.75;100.00;-18424.75;5015300;28;19913;-79
2023/05/05 00:42:54;;;;;;;;;;;;;;;14.78;100.00;-18425.44;5018114;28;20241;-80
2023/05/05 00:45:20;;;;;;;;;;;;;;;14.89;100.00;-18428.44;5048496;28;19936;-80
2023/05/05 00:47:47;;;;;;;;;;;;;;;14.95;100.00;-18429.94;5016223;28;19913;-79
2023/05/05 00:50:18;;;;;;;;;;;;;;;14.92;100.00;-18429.25;5012379;28;20353;-80
2023/05/05 00:52:43;;;;;;;;;;;;;;;14.95;100.00;-18429.94;5017247;28;20013;-79
2023/05/05 00:55:09;;;;;;;;;;;;;;;14.96;100.00;-18430.34;5018257;28;19942;-80
2023/05/05 00:57:34;;;;;;;;;;;;;;;14.92;100.00;-18429.13;5017320;28;20269;-80
2023/05/05 01:00:00;;;;;;;;;;;;;;;14.91;100.00;-18429.00;5016208;28;20020;-79
2023/05/05 01:02:25;;;;;;;;;;;;;;;14.79;100.00;-18425.72;5012630;28;20467;-80
2023/05/05 01:04:51;;;;;;;;;;;;;;;14.91;100.00;-18429.00;5017859;28;19928;-80
2023/05/05 01:07:27;;;;;;;;;;;;;;;14.98;100.00;-18430.91;5017674;28;19918;-80
2023/05/05 01:09:58;;;;;;;;;;;;;;;14.97;100.00;-18430.50;5029413;28;19913;-80
2023/05/05 01:12:31;;;;;;;;;;;;;;;14.82;100.00;-18426.53;5047291;28;20312;-80
2023/05/05 01:15:03;;;;;;;;;;;;;;;14.89;100.00;-18428.44;5015133;28;20602;-79
2023/05/05 01:17:55;;;;;;;;;;;;;;;14.89;100.00;-18428.56;5003828;28;19914;-80
2023/05/05 01:20:27;;;;;;;;;;;;;;;14.79;100.00;-18425.72;4995581;28;19989;-79
2023/05/05 01:22:57;;;;;;;;;;;;;;;14.76;100.00;-18425.03;5012992;28;19917;-80
2023/05/05 01:25:34;;;;;;;;;;;;;;;14.73;100.00;-18424.06;5020862;28;19936;-79
2023/05/05 01:28:15;;;;;;;;;;;;;;;14.76;100.00;-18424.88;5021204;28;19976;-80
2023/05/05 01:30:48;;;;;;;;;;;;;;;14.75;100.00;-18424.59;5013860;28;19923;-80
2023/05/05 01:33:16;;;;;;;;;;;;;;;14.78;100.00;-18425.44;5013762;28;19914;-79
2023/05/05 01:35:46;;;;;;;;;;;;;;;14.74;100.00;-18424.34;5015309;28;19958;-79
2023/05/05 01:38:23;;;;;;;;;;;;;;;14.69;100.00;-18422.97;5015175;28;19980;-80
2023/05/05 01:40:51;;;;;;;;;;;;;;;14.78;100.00;-18425.44;5014008;28;19924;-80
2023/05/05 01:43:18;;;;;;;;;;;;;;;14.88;100.00;-18428.31;5015700;28;20550;-80
2023/05/05 01:45:45;;;;;;;;;;;;;;;15.00;100.00;-18431.44;5015393;28;19925;-79
2023/05/05 01:48:12;;;;;;;;;;;;;;;14.96;100.00;-18430.22;5015086;28;19960;-80
2023/05/05 01:50:40;;;;;;;;;;;;;;;15.08;100.00;-18433.50;5013935;28;19913;-79
2023/05/05 01:53:07;;;;;;;;;;;;;;;15.22;100.00;-18437.34;5016118;28;19941;-79
2023/05/05 01:55:33;;;;;;;;;;;;;;;15.42;100.00;-18442.66;5015972;28;19924;-79
2023/05/05 01:58:00;;;;;;;;;;;;;;;15.29;100.00;-18439.13;5015425;28;19914;-79
2023/05/05 02:00:26;;;;;;;;;;;;;;;15.37;100.00;-18441.31;5021170;28;20392;-80
2023/05/05 02:02:53;;;;;;;;;;;;;;;15.28;100.00;-18438.84;5016986;28;20032;-79
2023/05/05 02:05:21;;;;;;;;;;;;;;;15.34;100.00;-18440.47;5016133;28;19918;-79
2023/05/05 02:07:47;;;;;;;;;;;;;;;15.35;100.00;-18440.75;5017828;28;19913;-79
2023/05/05 02:10:13;;;;;;;;;;;;;;;15.34;100.00;-18440.63;5017027;28;19951;-79
2023/05/05 02:12:39;;;;;;;;;;;;;;;15.32;100.00;-18439.94;5016300;28;19925;-79
2023/05/05 02:15:05;;;;;;;;;;;;;;;15.44;100.00;-18443.22;5031358;28;19917;-79
2023/05/05 02:17:31;;;;;;;;;;;;;;;15.41;100.00;-18442.41;5016077;28;20008;-79
2023/05/05 02:19:57;;;;;;;;;;;;;;;15.26;100.00;-18438.28;5014810;28;19924;-79
2023/05/05 02:22:23;;;;;;;;;;;;;;;15.43;100.00;-18442.81;5016199;28;20396;-78
2023/05/05 02:24:48;;;;;;;;;;;;;;;15.45;100.00;-18443.50;5016078;28;19937;-79
2023/05/05 02:27:15;;;;;;;;;;;;;;;15.51;100.00;-18445.00;5015728;28;19917;-79
2023/05/05 02:29:46;;;;;;;;;;;;;;;15.41;100.00;-18442.41;5014544;28;19917;-79
2023/05/05 02:32:21;;;;;;;;;;;;;;;15.52;100.00;-18445.28;5015159;28;19920;-79
2023/05/05 02:34:47;;;;;;;;;;;;;;;15.54;100.00;-18445.94;5015635;28;19924;-79
2023/05/05 02:37:16;;;;;;;;;;;;;;;15.38;100.00;-18441.56;5017277;28;19936;-79
2023/05/05 02:39:46;;;;;;;;;;;;;;;15.32;100.00;-18440.06;4999961;28;20008;-79
2023/05/05 02:42:14;;;;;;;;;;;;;;;15.36;100.00;-18441.03;5007738;28;19999;-79
2023/05/05 02:44:41;;;;;;;;;;;;;;;15.26;100.00;-18438.44;5012643;28;19935;-78
2023/05/05 02:47:06;;;;;;;;;;;;;;;15.16;100.00;-18435.56;5015029;28;19921;-78
2023/05/05 02:49:32;;;;;;;;;;;;;;;15.33;100.00;-18440.22;5015801;28;19917;-78
2023/05/05 02:51:57;;;;;;;;;;;;;;;15.28;100.00;-18438.97;5016809;28;20004;-78
2023/05/05 02:54:22;;;;;;;;;;;;;;;15.35;100.00;-18440.75;5014728;28;19917;-78
2023/05/05 02:56:49;;;;;;;;;;;;;;;15.40;100.00;-18442.13;5017239;28;20351;-78
2023/05/05 02:59:20;;;;;;;;;;;;;;;15.62;100.00;-18447.88;5020169;28;19959;-78
2023/05/05 03:01:51;;;;;;;;;;;;;;;15.75;100.00;-18451.56;5017489;28;19913;-79
2023/05/05 03:04:24;;;;;;;;;;;;;;;15.82;100.00;-18453.34;5017977;28;19914;-78
2023/05/05 03:06:51;;;;;;;;;;;;;;;15.97;100.00;-18457.44;5015973;28;19918;-79
2023/05/05 03:09:31;;;;;;;;;;;;;;;16.12;100.00;-18461.28;5023543;28;19923;-79
2023/05/05 03:12:02;;;;;;;;;;;;;;;16.32;100.00;-18466.75;5016195;28;19929;-79
2023/05/05 03:14:28;;;;;;;;;;;;;;;16.27;100.00;-18465.22;5017201;28;20333;-79
2023/05/05 03:16:55;;;;;;;;;;;;;;;16.08;100.00;-18460.31;5017405;28;19921;-79
2023/05/05 03:19:22;;;;;;;;;;;;;;;16.18;100.00;-18462.91;5017761;28;19921;-78
2023/05/05 03:21:47;;;;;;;;;;;;;;;16.22;100.00;-18464.00;5017969;28;19921;-79
2023/05/05 03:24:16;;;;;;;;;;;;;;;16.17;100.00;-18462.78;5028733;28;19924;-78
2023/05/05 03:26:42;;;;;;;;;;;;;;;16.12;100.00;-18461.28;5018752;28;20022;-78
2023/05/05 03:29:07;;;;;;;;;;;;;;;16.29;100.00;-18465.78;5014148;28;19914;-78
2023/05/05 03:31:33;;;;;;;;;;;;;;;16.12;100.00;-18461.28;5024459;28;19917;-78
2023/05/05 03:33:58;;;;;;;;;;;;;;;16.02;100.00;-18458.66;5016266;28;20013;-78
2023/05/05 03:36:23;;;;;;;;;;;;;;;16.15;100.00;-18462.22;5018211;28;19917;-78
2023/05/05 03:38:49;;;;;;;;;;;;;;;16.05;100.00;-18459.34;5026437;28;20004;-78
2023/05/05 03:41:14;;;;;;;;;;;;;;;16.08;100.00;-18460.19;5016010;28;19921;-78
2023/05/05 03:43:40;;;;;;;;;;;;;;;15.96;100.00;-18457.03;5015841;28;19921;-78
2023/05/05 03:46:05;;;;;;;;;;;;;;;15.88;100.00;-18454.97;5024020;28;19928;-79
2023/05/05 03:48:31;;;;;;;;;;;;;;;15.94;100.00;-18456.47;5012884;28;19914;-79
2023/05/05 03:50:56;;;;;;;;;;;;;;;15.82;100.00;-18453.34;5017177;28;20300;-78
2023/05/05 03:53:21;;;;;;;;;;;;;;;15.87;100.00;-18454.56;5017023;28;19975;-79
2023/05/05 03:55:47;;;;;;;;;;;;;;;15.86;100.00;-18454.44;5020503;28;20266;-79
2023/05/05 03:58:12;;;;;;;;;;;;;;;15.90;100.00;-18455.53;5018078;28;19925;-79
2023/05/05 04:00:37;;;;;;;;;;;;;;;15.77;100.00;-18451.97;5016222;28;19919;-79
2023/05/05 04:03:02;;;;;;;;;;;;;;;15.69;100.00;-18449.91;5017077;28;19974;-79
2023/05/05 04:05:27;;;;;;;;;;;;;;;15.69;100.00;-18449.78;5013150;28;19932;-79
2023/05/05 04:07:53;;;;;;;;;;;;;;;15.73;100.00;-18451.00;5018077;28;19917;-79
2023/05/05 04:10:18;;;;;;;;;;;;;;;15.66;100.00;-18448.97;5015041;28;19972;-79
2023/05/05 04:12:43;;;;;;;;;;;;;;;15.75;100.00;-18451.56;5015654;28;19921;-79
2023/05/05 04:15:09;;;;;;;;;;;;;;;15.74;100.00;-18451.16;5017326;28;19972;-79
2023/05/05 04:17:34;;;;;;;;;;;;;;;15.67;100.00;-18449.22;5019077;28;19921;-79
2023/05/05 04:19:59;;;;;;;;;;;;;;;15.55;100.00;-18446.09;5016253;28;19996;-79
2023/05/05 04:22:24;;;;;;;;;;;;;;;15.48;100.00;-18444.31;5010499;28;19917;-79
2023/05/05 04:24:50;;;;;;;;;;;;;;;15.49;100.00;-18444.59;5017813;28;19980;-79
2023/05/05 04:27:15;;;;;;;;;;;;;;;15.51;100.00;-18445.00;5020318;28;19918;-79
2023/05/05 04:29:41;;;;;;;;;;;;;;;15.43;100.00;-18442.81;5017602;28;19913;-78
2023/05/05 04:32:06;;;;;;;;;;;;;;;15.64;100.00;-18448.41;5021080;28;19917;-79
2023/05/05 04:34:31;;;;;;;;;;;;;;;15.61;100.00;-18447.59;5022582;28;20363;-79
2023/05/05 04:36:56;;;;;;;;;;;;;;;15.67;100.00;-18449.38;5022967;28;19956;-78
2023/05/05 04:39:22;;;;;;;;;;;;;;;15.63;100.00;-18448.13;5019672;28;20489;-81
2023/05/05 04:41:47;;;;;;;;;;;;;;;15.74;100.00;-18451.28;5022558;28;19913;-79
2023/05/05 04:44:12;;;;;;;;;;;;;;;15.69;100.00;-18449.91;5022804;28;20396;-78
2023/05/05 04:46:37;;;;;;;;;;;;;;;15.60;100.00;-18447.47;5022666;28;19996;-78
2023/05/05 04:49:04;;;;;;;;;;;;;;;15.81;100.00;-18452.94;5012257;28;19913;-79
2023/05/05 04:51:30;;;;;;;;;;;;;;;15.76;100.00;-18451.69;5004343;28;19925;-79
2023/05/05 04:53:56;;;;;;;;;;;;;;;15.78;100.00;-18452.25;5042747;28;19917;-79
2023/05/05 04:56:21;;;;;;;;;;;;;;;15.75;100.00;-18451.44;5017209;28;19923;-79
2023/05/05 04:58:46;;;;;;;;;;;;;;;15.86;100.00;-18454.31;5009712;28;20017;-80
2023/05/05 05:01:12;;;;;;;;;;;;;;;15.82;100.00;-18453.34;5009768;28;19917;-79
2023/05/05 05:03:37;;;;;;;;;;;;;;;15.85;100.00;-18454.16;5015540;28;20395;-79
2023/05/05 05:06:02;;;;;;;;;;;;;;;15.85;100.00;-18454.03;5021131;28;20289;-79
2023/05/05 05:08:27;;;;;;;;;;;;;;;15.64;100.00;-18448.41;5019452;28;19918;-79
2023/05/05 05:10:53;;;;;;;;;;;;;;;15.84;100.00;-18453.88;5012391;28;20440;-79
2023/05/05 05:13:18;;;;;;;;;;;;;;;15.86;100.00;-18454.31;5019487;28;20003;-79
2023/05/05 05:15:44;;;;;;;;;;;;;;;15.70;100.00;-18450.06;5019520;28;19929;-80
2023/05/05 05:18:09;;;;;;;;;;;;;;;15.74;100.00;-18451.28;5021461;28;19914;-80
2023/05/05 05:20:34;;;;;;;;;;;;;;;15.76;100.00;-18451.84;5020449;28;19917;-79
2023/05/05 05:23:00;;;;;;;;;;;;;;;15.82;100.00;-18453.34;5019871;28;19953;-80
2023/05/05 05:25:26;;;;;;;;;;;;;;;15.79;100.00;-18452.53;5014992;28;20570;-80
2023/05/05 05:27:51;;;;;;;;;;;;;;;15.91;100.00;-18455.81;5014881;28;19918;-80
2023/05/05 05:30:16;;;;;;;;;;;;;;;16.02;100.00;-18458.66;5013648;28;19918;-80
2023/05/05 05:32:42;;;;;;;;;;;;;;;16.09;100.00;-18460.59;5011990;28;22362;-81
2023/05/05 05:35:07;;;;;;;;;;;;;;;16.00;100.00;-18458.25;5009984;28;19921;-80
2023/05/05 05:37:33;;;;;;;;;;;;;;;16.17;100.00;-18462.78;4999357;28;20424;-79
2023/05/05 05:39:59;;;;;;;;;;;;;;;16.21;100.00;-18463.88;5000130;28;19929;-80
2023/05/05 05:42:24;;;;;;;;;;;;;;;16.27;100.00;-18465.38;4998633;28;20296;-80
2023/05/05 05:44:49;;;;;;;;;;;;;;;16.37;100.00;-18467.97;5007064;28;19921;-80
2023/05/05 05:47:15;;;;;;;;;;;;;;;16.35;100.00;-18467.56;5003057;28;20063;-80
2023/05/05 05:49:40;;;;;;;;;;;;;;;16.42;100.00;-18469.47;5013786;28;19921;-80
2023/05/05 05:52:05;;;;;;;;;;;;;;;16.43;100.00;-18469.59;5006048;28;20423;-80
2023/05/05 05:54:33;;;;;;;;;;;;;;;16.42;100.00;-18469.34;5004444;28;20392;-81
2023/05/05 05:56:58;;;;;;;;;;;;;;;16.57;100.00;-18473.44;5005550;28;20399;-81
2023/05/05 05:59:23;;;;;;;;;;;;;;;16.67;100.00;-18476.16;5004802;28;19921;-80
2023/05/05 06:01:48;;;;;;;;;;;;;;;16.63;100.00;-18475.06;5003864;28;19921;-81
2023/05/05 06:04:14;;;;;;;;;;;;;;;16.72;100.00;-18477.41;5007129;28;20473;-81
2023/05/05 06:06:39;;;;;;;;;;;;;;;16.86;100.00;-18481.22;5005562;28;20367;-81
2023/05/05 06:09:05;;;;;;;;;;;;;;;16.68;100.00;-18476.28;5005100;28;19988;-81
2023/05/05 06:11:30;;;;;;;;;;;;;;;16.83;100.00;-18480.25;5006566;28;19936;-81
2023/05/05 06:13:55;;;;;;;;;;;;;;;16.91;100.00;-18482.59;5030439;28;19924;-81
2023/05/05 06:16:21;;;;;;;;;;;;;;;16.86;100.00;-18481.09;5002006;28;20001;-81
2023/05/05 06:18:46;;;;;;;;;;;;;;;17.05;100.00;-18486.28;5000423;28;19995;-81
2023/05/05 06:21:12;;;;;;;;;;;;;;;17.16;100.00;-18489.13;4999866;28;19987;-81
2023/05/05 06:23:37;;;;;;;;;;;;;;;17.09;100.00;-18487.38;5003813;28;19914;-81
2023/05/05 06:26:03;;;;;;;;;;;;;;;17.02;100.00;-18485.31;5003400;28;19917;-80
2023/05/05 06:28:28;;;;;;;;;;;;;;;17.00;100.00;-18484.78;5002597;28;20483;-81
2023/05/05 06:30:53;;;;;;;;;;;;;;;17.14;100.00;-18488.59;5018189;28;19921;-81
2023/05/05 06:33:18;;;;;;;;;;;;;;;16.99;100.00;-18484.50;5002646;28;19992;-81
2023/05/05 06:35:44;;;;;;;;;;;;;;;16.95;100.00;-18483.41;4998324;28;19966;-81
2023/05/05 06:38:09;;;;;;;;;;;;;;;16.95;100.00;-18483.53;5000281;28;20351;-81
2023/05/05 06:40:34;;;;;;;;;;;;;;;16.96;100.00;-18483.69;5001922;28;19913;-81
2023/05/05 06:43:00;;;;;;;;;;;;;;;16.87;100.00;-18481.50;5000845;28;19940;-81
2023/05/05 06:45:25;;;;;;;;;;;;;;;16.89;100.00;-18482.03;5004533;28;19971;-81
2023/05/05 06:47:51;;;;;;;;;;;;;;;17.04;100.00;-18485.88;5004430;28;19954;-81
2023/05/05 06:50:16;;;;;;;;;;;;;;;17.04;100.00;-18486.00;5010150;28;19918;-81
2023/05/05 06:52:41;;;;;;;;;;;;;;;17.11;100.00;-18487.91;5024261;28;19966;-81
2023/05/05 06:55:07;;;;;;;;;;;;;;;17.10;100.00;-18487.50;5036355;28;19925;-81
2023/05/05 06:57:32;;;;;;;;;;;;;;;17.21;100.00;-18490.50;5010468;28;19913;-82
2023/05/05 06:59:57;;;;;;;;;;;;;;;17.29;100.00;-18492.69;5015036;28;19945;-83
2023/05/05 07:02:23;;;;;;;;;;;;;;;17.42;100.00;-18495.97;5012746;28;19920;-81
2023/05/05 07:04:48;;;;;;;;;;;;;;;17.49;100.00;-18497.88;5039179;28;20079;-82
2023/05/05 07:07:13;;;;;;;;;;;;;;;17.79;100.00;-18505.94;5010379;28;19939;-82
2023/05/05 07:09:40;;;;;;;;;;;;;;;17.73;100.00;-18504.44;5007890;28;19918;-81
2023/05/05 07:12:05;;;;;;;;;;;;;;;17.72;100.00;-18504.16;5006186;28;19959;-83
2023/05/05 07:14:30;;;;;;;;;;;;;;;17.81;100.00;-18506.63;5015889;28;19917;-82
2023/05/05 07:16:55;;;;;;;;;;;;;;;17.76;100.00;-18505.13;5011096;28;19941;-81
2023/05/05 07:19:22;;;;;;;;;;;;;;;17.96;100.00;-18510.56;5010727;28;19925;-82
2023/05/05 07:21:47;;;;;;;;;;;;;;;18.12;100.00;-18514.66;5013894;28;20003;-81
2023/05/05 07:24:12;;;;;;;;;;;;;;;18.24;100.00;-18517.94;5026672;28;19921;-82
2023/05/05 07:26:37;;;;;;;;;;;;;;;18.26;100.00;-18518.47;5012946;28;19925;-81
2023/05/05 07:29:04;;;;;;;;;;;;;;;18.43;100.00;-18523.13;5014709;28;19913;-83
2023/05/05 07:31:29;;;;;;;;;;;;;;;18.55;100.00;-18526.25;5003356;28;19913;-81
2023/05/05 07:33:55;;;;;;;;;;;;;;;18.60;100.00;-18527.63;5016001;28;19928;-82
2023/05/05 07:36:21;;;;;;;;;;;;;;;18.64;100.00;-18528.72;5016207;28;19917;-81
2023/05/05 07:38:46;;;;;;;;;;;;;;;18.86;100.00;-18534.44;5012907;28;19913;-81
2023/05/05 07:41:11;;;;;;;;;;;;;;;18.87;100.00;-18534.72;5016862;28;19913;-82
2023/05/05 07:43:39;;;;;;;;;;;;;;;18.52;100.00;-18525.44;5014076;28;20371;-81
2023/05/05 07:46:05;;;;;;;;;;;;;;;18.55;100.00;-18526.13;5014053;28;19917;-82
2023/05/05 07:48:30;;;;;;;;;;;;;;;18.42;100.00;-18522.84;5012289;28;19917;-81
2023/05/05 07:50:55;;;;;;;;;;;;;;;18.72;100.00;-18530.88;5016157;28;19928;-82
2023/05/05 07:53:20;;;;;;;;;;;;;;;18.65;100.00;-18528.97;5016866;28;19913;-80
2023/05/05 07:55:46;;;;;;;;;;;;;;;18.85;100.00;-18534.31;5014473;28;19948;-81
2023/05/05 07:58:11;;;;;;;;;;;;;;;18.96;100.00;-18537.16;5017911;28;19913;-81
2023/05/05 08:00:36;;;;;;;;;;;;;;;19.03;100.00;-18539.06;5011787;28;19943;-81
2023/05/05 08:03:02;;;;;;;;;;;;;;;19.02;100.00;-18538.81;5016602;28;19913;-83
2023/05/05 08:05:27;;;;;;;;;;;;;;;18.99;100.00;-18538.00;5015551;28;19922;-81
2023/05/05 08:07:52;;;;;;;;;;;;;;;19.21;100.00;-18543.72;5010171;28;19941;-82
2023/05/05 08:10:18;;;;;;;;;;;;;;;19.22;100.00;-18543.97;5013651;28;19917;-83
2023/05/05 08:12:43;;;;;;;;;;;;;;;19.04;100.00;-18539.34;5005574;28;19942;-81
2023/05/05 08:15:08;;;;;;;;;;;;;;;19.26;100.00;-18545.22;5020573;28;19917;-82
2023/05/05 08:17:50;;;;;;;;;;;;;;;19.46;100.00;-18550.53;5018476;28;19925;-81
2023/05/05 08:20:16;;;;;;;;;;;;;;;19.48;100.00;-18550.94;5011557;28;19936;-82
2023/05/05 08:22:41;;;;;;;;;;;;;;;19.44;100.00;-18549.84;5015377;28;19944;-82
2023/05/05 08:25:07;;;;;;;;;;;;;;;19.30;100.00;-18546.28;5020380;28;20300;-82
2023/05/05 08:27:34;;;;;;;;;;;;;;;19.36;100.00;-18547.94;5018716;28;19914;-82
2023/05/05 08:29:59;;;;;;;;;;;;;;;19.25;100.00;-18544.78;5010637;28;19914;-82
2023/05/05 08:32:24;;;;;;;;;;;;;;;19.40;100.00;-18548.88;5018551;28;19925;-83
2023/05/05 08:34:50;;;;;;;;;;;;;;;19.37;100.00;-18548.19;5018498;28;19918;-82
2023/05/05 08:37:17;;;;;;;;;;;;;;;19.41;100.00;-18549.16;5017800;28;19913;-82
2023/05/05 08:39:42;;;;;;;;;;;;;;;19.66;100.00;-18555.69;5016641;28;19920;-81
2023/05/05 08:42:08;;;;;;;;;;;;;;;19.83;100.00;-18560.34;5017736;28;20555;-82
2023/05/05 08:44:33;;;;;;;;;;;;;;;19.87;100.00;-18561.41;5015604;28;19913;-82
2023/05/05 08:46:59;;;;;;;;;;;;;;;19.90;100.00;-18562.22;5020609;28;20379;-81
2023/05/05 08:49:24;;;;;;;;;;;;;;;19.84;100.00;-18560.75;5014966;28;19929;-82
2023/05/05 08:51:50;;;;;;;;;;;;;;;20.00;100.00;-18564.81;5012368;28;19913;-81
2023/05/05 08:54:19;;;;;;;;;;;;;;;19.80;100.00;-18559.50;5018404;28;19981;-82
2023/05/05 08:56:45;;;;;;;;;;;;;;;19.83;100.00;-18560.34;5016984;28;19961;-82
2023/05/05 08:59:12;;;;;;;;;;;;;;;19.67;100.00;-18555.97;5015545;28;19924;-81
2023/05/05 09:01:38;;;;;;;;;;;;;;;19.76;100.00;-18558.41;5048124;28;19920;-82
2023/05/05 09:04:03;;;;;;;;;;;;;;;20.03;100.00;-18565.63;5015140;28;19976;-82
2023/05/05 09:06:31;;;;;;;;;;;;;;;20.01;100.00;-18565.09;5020487;28;19913;-82
2023/05/05 09:08:56;;;;;;;;;;;;;;;20.13;100.00;-18568.22;5049229;28;19913;-82
2023/05/05 09:11:22;;;;;;;;;;;;;;;20.32;100.00;-18573.41;5018924;28;19964;-81
2023/05/05 09:13:47;;;;;;;;;;;;;;;20.65;100.00;-18582.09;5014812;28;19921;-82
2023/05/05 09:16:12;;;;;;;;;;;;;;;20.61;100.00;-18581.03;5014627;28;19917;-82
2023/05/05 09:18:39;;;;;;;;;;;;;;;20.71;100.00;-18583.75;5014619;28;19968;-82
2023/05/05 09:21:23;;;;;;;;;;;;;;;20.66;100.00;-18582.38;5014979;28;20340;-83
2023/05/05 09:24:05;;;;;;;;;;;;;;;20.72;100.00;-18584.00;5013760;28;19946;-82
2023/05/05 09:26:35;;;;;;;;;;;;;;;20.91;100.00;-18589.03;5012572;28;19914;-82
2023/05/05 09:29:01;;;;;;;;;;;;;;;20.99;100.00;-18591.09;5016786;28;19913;-82
2023/05/05 09:31:28;;;;;;;;;;;;;;;21.10;100.00;-18594.09;5014610;28;19920;-82
2023/05/05 09:33:54;;;;;;;;;;;;;;;21.32;100.00;-18600.06;5013316;28;19944;-82
2023/05/05 09:36:39;;;;;;;;;;;;;;;20.99;100.00;-18591.09;5017934;28;19952;-84
2023/05/05 09:39:06;;;;;;;;;;;;;;;21.14;100.00;-18595.16;5027686;28;20015;-82
2023/05/05 09:41:38;;;;;;;;;;;;;;;21.25;100.00;-18598.16;5019124;28;20348;-82
2023/05/05 09:44:03;;;;;;;;;;;;;;;21.23;100.00;-18597.63;5004818;28;19914;-84
2023/05/05 09:46:28;;;;;;;;;;;;;;;21.09;100.00;-18593.81;5015479;28;19913;-82
2023/05/05 09:48:53;;;;;;;;;;;;;;;21.07;100.00;-18593.25;5013038;28;19921;-83
2023/05/05 09:51:27;;;;;;;;;;;;;;;20.71;100.00;-18583.75;5014620;28;19940;-82
2023/05/05 09:53:52;;;;;;;;;;;;;;;20.89;100.00;-18588.63;5012184;28;19921;-83
2023/05/05 09:56:18;;;;;;;;;;;;;;;20.83;100.00;-18587.00;5015130;28;19924;-84
2023/05/05 09:58:43;;;;;;;;;;;;;;;20.88;100.00;-18588.38;5013340;28;19918;-83
2023/05/05 10:01:21;;;;;;;;;;;;;;;21.06;100.00;-18593.13;5012332;28;19914;-82
2023/05/05 10:03:50;;;;;;;;;;;;;;;21.18;100.00;-18596.38;5008939;28;19928;-83
2023/05/05 10:06:16;;;;;;;;;;;;;;;21.40;100.00;-18602.09;5013028;28;20372;-83
2023/05/05 10:08:41;;;;;;;;;;;;;;;21.83;100.00;-18613.53;5019826;28;19994;-82
2023/05/05 10:11:06;;;;;;;;;;;;;;;21.65;99.52;-18608.75;5015726;28;19914;-83
2023/05/05 10:13:35;;;;;;;;;;;;;;;21.54;100.00;-18605.91;5015636;28;19949;-82
2023/05/05 10:16:02;;;;;;;;;;;;;;;21.82;99.29;-18613.25;5013000;28;19944;-82
2023/05/05 10:18:27;;;;;;;;;;;;;;;21.97;92.74;-18617.19;5012148;28;19979;-82
2023/05/05 10:20:57;;;;;;;;;;;;;;;22.07;100.00;-18619.91;5011391;28;20270;-82
2023/05/05 10:23:23;;;;;;;;;;;;;;;22.03;100.00;-18618.81;5015301;28;19929;-83
2023/05/05 10:26:02;;;;;;;;;;;;;;;21.86;100.00;-18614.34;5012653;28;19918;-83
2023/05/05 10:28:31;;;;;;;;;;;;;;;21.72;97.60;-18610.66;5008980;28;19920;-83
2023/05/05 10:30:59;;;;;;;;;;;;;;;21.86;97.17;-18614.47;5016078;28;19929;-82
2023/05/05 10:33:32;;;;;;;;;;;;;;;21.70;91.29;-18610.13;5018215;28;19913;-83
2023/05/05 10:36:00;;;;;;;;;;;;;;;21.72;95.65;-18610.66;5017010;28;19967;-83
2023/05/05 10:38:27;;;;;;;;;;;;;;;21.85;96.94;-18614.19;5013727;28;19956;-83
2023/05/05 10:40:53;;;;;;;;;;;;;;;21.81;95.54;-18613.13;5014410;28;20210;-82
2023/05/05 10:43:19;;;;;;;;;;;;;;;21.70;98.98;-18610.13;5040581;28;19922;-82
2023/05/05 10:45:44;;;;;;;;;;;;;;;21.89;98.71;-18615.16;5015810;28;19956;-83
2023/05/05 10:48:19;;;;;;;;;;;;;;;21.85;97.35;-18614.06;5012866;28;19970;-82
2023/05/05 10:50:49;;;;;;;;;;;;;;;21.94;97.66;-18616.50;5012234;28;19928;-82
2023/05/05 10:53:18;;;;;;;;;;;;;;;21.85;98.52;-18614.06;5018344;28;20015;-82
2023/05/05 10:55:48;;;;;;;;;;;;;;;21.70;90.45;-18610.13;5010263;28;19929;-83
2023/05/05 10:58:32;;;;;;;;;;;;;;;21.55;93.09;-18606.03;5015074;28;19918;-83
2023/05/05 11:00:58;;;;;;;;;;;;;;;21.70;93.50;-18610.00;5011991;28;19936;-82
2023/05/05 11:03:23;;;;;;;;;;;;;;;21.81;87.11;-18612.97;5014077;28;19918;-82
2023/05/05 11:06:04;;;;;;;;;;;;;;;21.89;89.34;-18615.00;5014017;28;19914;-82
2023/05/05 11:08:30;;;;;;;;;;;;;;;22.01;89.59;-18618.41;5017782;28;20009;-84
2023/05/05 11:10:55;;;;;;;;;;;;;;;22.05;89.32;-18619.38;5012174;28;19953;-83
2023/05/05 11:13:21;;;;;;;;;;;;;;;22.10;92.42;-18620.72;5019061;28;19998;-82
2023/05/05 11:15:53;;;;;;;;;;;;;;;22.06;95.39;-18619.78;5014954;28;20278;-83
2023/05/05 11:18:38;;;;;;;;;;;;;;;22.08;92.63;-18620.19;5018236;28;19913;-83
2023/05/05 11:21:07;;;;;;;;;;;;;;;22.14;96.04;-18621.81;5030234;28;19928;-82
2023/05/05 11:23:33;;;;;;;;;;;;;;;21.95;98.27;-18616.66;5014360;28;19914;-82
2023/05/05 11:25:58;;;;;;;;;;;;;;;21.89;95.74;-18615.00;5015755;28;19924;-83
2023/05/05 11:28:28;;;;;;;;;;;;;;;21.89;90.74;-18615.16;5013211;28;19943;-83
2023/05/05 11:30:53;;;;;;;;;;;;;;;22.01;100.00;-18618.28;5013961;28;19953;-82
2023/05/05 11:33:25;;;;;;;;;;;;;;;21.90;89.09;-18615.44;5019148;28;19928;-82
2023/05/05 11:35:55;;;;;;;;;;;;;;;21.79;89.41;-18612.44;5012766;28;19933;-84
2023/05/05 11:38:24;;;;;;;;;;;;;;;21.76;88.86;-18611.75;5011822;28;19935;-82
2023/05/05 11:40:51;;;;;;;;;;;;;;;21.84;92.57;-18613.94;5013765;28;19936;-82
2023/05/05 11:43:20;;;;;;;;;;;;;;;21.89;90.07;-18615.16;5013772;28;19937;-83
2023/05/05 11:45:45;;;;;;;;;;;;;;;21.94;90.03;-18616.50;5014796;28;19917;-83
2023/05/05 11:48:23;;;;;;;;;;;;;;;21.89;90.39;-18615.00;5018546;28;20003;-84
2023/05/05 11:50:49;;;;;;;;;;;;;;;21.83;86.43;-18613.66;5016781;28;19921;-83
2023/05/05 11:53:14;;;;;;;;;;;;;;;21.94;89.54;-18616.50;5018575;28;19918;-82
2023/05/05 11:55:40;;;;;;;;;;;;;;;22.09;87.99;-18620.44;5016618;28;19925;-83
2023/05/05 11:58:16;;;;;;;;;;;;;;;22.21;87.23;-18623.72;5020409;28;19913;-83
2023/05/05 12:00:41;;;;;;;;;;;;;;;22.12;93.89;-18621.25;5014402;28;19917;-83
2023/05/05 12:03:07;;;;;;;;;;;;;;;22.01;88.15;-18618.28;5015288;28;19940;-82
2023/05/05 12:05:33;;;;;;;;;;;;;;;22.09;88.69;-18620.44;5020343;28;20000;-84
2023/05/05 12:07:58;;;;;;;;;;;;;;;22.02;85.62;-18618.53;5020742;28;20316;-82
2023/05/05 12:10:23;;;;;;;;;;;;;;;21.97;87.45;-18617.31;5022665;28;19913;-83
2023/05/05 12:12:49;;;;;;;;;;;;;;;21.95;94.19;-18616.78;5021553;28;20113;-83
2023/05/05 12:15:14;;;;;;;;;;;;;;;22.09;84.90;-18620.44;5021569;28;20396;-82
2023/05/05 12:17:41;;;;;;;;;;;;;;;21.89;88.19;-18615.16;5021838;28;19913;-82
2023/05/05 12:20:07;;;;;;;;;;;;;;;21.96;86.58;-18616.91;5023100;28;19936;-82
2023/05/05 12:22:32;;;;;;;;;;;;;;;21.72;86.80;-18610.66;5021943;28;19905;-83
2023/05/05 12:24:58;;;;;;;;;;;;;;;21.66;83.94;-18609.03;5036892;28;19959;-82
2023/05/05 12:27:25;;;;;;;;;;;;;;;21.65;86.90;-18608.63;5021162;28;19921;-82